»·PEaware :: N1BF KRNO-KSBA

N1BF :: KRNO-KSBA

FLIGHT INFORMATION

Flight Status: Arrived
Operator: Privately registered:
United States
More flights under this callsign
Pilot: Ben F. (2808)
Aircraft: BOEING 737-300
(B733)
More flights by this aircraft type
Origin: KRNO Reno/Tahoe Intl
United States
Destination: KSBA Santa Barbara Mun
United States
More flights between these airports :: More routes between these airports
Route: +ZEFFR6 DARBI GVO
File this flight plan on PilotEdge
Remarks:
Altitude:
(Current/Filed)
34,000ft
Speed:
(Current/Filed)
442kts
Departed: 15-Oct-20 05:33 PM
Arrived: 15-Oct-20 06:28 PM
Distance/Time
Traveled:
304nm/0:55
Distance/Time
To Go:
Arrived

Flight Plot

Page will automatically refresh every two minutes.

Flight plan parsing failed; only flown route is shown


Map Options




Map Legend


Flown Route
Filed Route
Departure Airport
Arrival Airport
Navaid (VOR, NDB)
Fix

Horizontal Profiles

Position Reports

Time Latitude Longitude Heading Altitude Ground
Speed
15-Oct-20 17:12 39.505349 -119.772719 197 4416ft 0kts
15-Oct-20 17:13 39.505349 -119.772719 197 4416ft 0kts
15-Oct-20 17:14 39.505349 -119.772719 197 4416ft 0kts
15-Oct-20 17:15 39.505349 -119.772719 197 4416ft 0kts
15-Oct-20 17:16 39.505349 -119.772719 197 4416ft 0kts
15-Oct-20 17:17 39.505349 -119.772719 197 4416ft 0kts
15-Oct-20 17:18 39.505349 -119.772719 197 4416ft 0kts
15-Oct-20 17:19 39.505349 -119.772719 197 4416ft 0kts
15-Oct-20 17:20 39.505349 -119.772719 197 4416ft 0kts
15-Oct-20 17:21 39.505349 -119.772719 197 4416ft 0kts
15-Oct-20 17:22 39.505831 -119.772599 156 4416ft 2kts
15-Oct-20 17:23 39.505986 -119.772783 116 4416ft 0kts
15-Oct-20 17:24 39.505986 -119.772783 116 4416ft 0kts
15-Oct-20 17:25 39.505909 -119.772301 93 4416ft 3kts
15-Oct-20 17:26 39.508261 -119.771487 359 4416ft 17kts
15-Oct-20 17:27 39.512703 -119.771463 0 4416ft 18kts
15-Oct-20 17:28 39.513766 -119.770498 91 4416ft 0kts
15-Oct-20 17:29 39.513766 -119.770498 91 4416ft 0kts
15-Oct-20 17:30 39.513766 -119.770498 91 4416ft 0kts
15-Oct-20 17:31 39.513763 -119.770380 91 4416ft 1kts
15-Oct-20 17:32 39.503811 -119.769254 179 4416ft 125kts
15-Oct-20 17:33 39.455276 -119.769381 176 5848ft 191kts
15-Oct-20 17:34 39.396201 -119.769354 179 7469ft 247kts
15-Oct-20 17:35 39.318272 -119.769904 178 9663ft 295kts
15-Oct-20 17:36 39.227964 -119.766565 177 11356ft 351kts
15-Oct-20 17:37 39.127639 -119.762778 178 14143ft 368kts
15-Oct-20 17:38 39.022731 -119.758806 178 16747ft 383kts
15-Oct-20 17:39 38.914142 -119.754705 179 19151ft 397kts
15-Oct-20 17:40 38.801953 -119.750487 178 21342ft 409kts
15-Oct-20 17:41 38.686619 -119.746158 178 23341ft 421kts
15-Oct-20 17:42 38.567924 -119.741715 178 25197ft 431kts
15-Oct-20 17:43 38.446559 -119.737188 178 26870ft 441kts
15-Oct-20 17:44 38.322557 -119.732580 178 28449ft 450kts
15-Oct-20 17:45 38.199058 -119.736443 181 30487ft 441kts
15-Oct-20 17:46 38.077411 -119.736690 180 32273ft 433kts
15-Oct-20 17:47 37.958381 -119.736674 181 33816ft 426kts
15-Oct-20 17:48 37.839792 -119.736666 181 34328ft 430kts
15-Oct-20 17:49 37.721521 -119.745418 186 34261ft 426kts
15-Oct-20 17:50 37.604973 -119.772625 192 34267ft 426kts
15-Oct-20 17:51 37.489391 -119.802271 192 34266ft 425kts
15-Oct-20 17:52 37.371681 -119.817793 185 34267ft 427kts
15-Oct-20 17:53 37.253460 -119.830117 185 34259ft 427kts
15-Oct-20 17:54 37.135770 -119.843382 186 34077ft 426kts
15-Oct-20 17:55 37.018212 -119.859965 184 34018ft 425kts
15-Oct-20 17:56 36.900325 -119.870421 184 34020ft 426kts
15-Oct-20 17:57 36.783649 -119.881896 184 34022ft 424kts
15-Oct-20 17:58 36.666387 -119.893207 184 34018ft 424kts
15-Oct-20 17:59 36.549192 -119.904346 184 34017ft 423kts
15-Oct-20 18:00 36.433137 -119.915519 184 34044ft 411kts
15-Oct-20 18:01 36.320047 -119.926249 183 34013ft 408kts
15-Oct-20 18:02 36.206589 -119.936926 183 33285ft 413kts
15-Oct-20 18:03 36.092876 -119.947597 183 31302ft 414kts
15-Oct-20 18:04 35.973646 -119.958766 183 29345ft 441kts
15-Oct-20 18:05 35.850264 -119.970277 184 27314ft 451kts
15-Oct-20 18:06 35.724001 -119.982027 184 25329ft 458kts
15-Oct-20 18:07 35.598092 -119.993702 184 24006ft 443kts
15-Oct-20 18:08 35.474522 -120.005118 184 24033ft 444kts
15-Oct-20 18:10 35.351965 -120.016402 183 23705ft 430kts
15-Oct-20 18:11 35.238016 -120.026840 183 21675ft 390kts
15-Oct-20 18:12 35.131055 -120.036620 183 19687ft 381kts
15-Oct-20 18:13 35.026418 -120.046174 183 17683ft 375kts
15-Oct-20 18:14 34.924734 -120.055437 183 15680ft 359kts
15-Oct-20 18:15 34.826803 -120.064323 182 13633ft 345kts
15-Oct-20 18:16 34.735098 -120.072633 182 11613ft 316kts
15-Oct-20 18:17 34.650753 -120.080248 183 9739ft 289kts
15-Oct-20 18:18 34.574479 -120.069713 152 8156ft 285kts
15-Oct-20 18:19 34.505908 -120.023379 152 6556ft 279kts
15-Oct-20 18:20 34.438613 -119.978246 152 4957ft 274kts
15-Oct-20 18:21 34.394614 -119.911187 102 3502ft 264kts
15-Oct-20 18:22 34.379884 -119.828347 101 2887ft 222kts
15-Oct-20 18:23 34.367757 -119.760156 101 2894ft 203kts
15-Oct-20 18:24 34.400826 -119.719058 7 2604ft 194kts
15-Oct-20 18:25 34.430478 -119.754161 263 1492ft 170kts
15-Oct-20 18:26 34.428395 -119.805660 269 523ft 139kts
15-Oct-20 18:26 34.427752 -119.842720 269 20ft 101kts
15-Oct-20 18:28 34.426696 -119.851736 151 20ft 1kts
15-Oct-20 18:28 34.426486 -119.849308 87 20ft 14kts
15-Oct-20 18:30 34.426854 -119.846380 17 20ft 0kts
15-Oct-20 18:30 34.426854 -119.846380 17 20ft 0kts
15-Oct-20 18:32 34.426894 -119.846366 15 20ft 3kts
15-Oct-20 18:32 34.429059 -119.844071 64 20ft 16kts
15-Oct-20 18:33 34.430896 -119.839666 29 20ft 1kts
15-Oct-20 18:34 34.431743 -119.839747 65 20ft 5kts

Navigation Log

Ident Type
Flight plan parsing failed, navigation log unavailable